hwlogo.jpg (8581 bytes)
Home Your Weather Products Services Weather On Your Site Contact
HW Version Logo
Weather Info
Your Weather (Options)
Canadian Weather
International Weather
Enter your " Place, State", US Zip Code or ICAO:  
Forecast Information Radar Information
Slave Lake, Alberta, Canada  Lat: 55.18N, Lon: 114.47W
ICAO Used: CYZH
Current Conditions
Updated: 11:00 AM MST THU FEB 22 2018
Sun & Moon Information
Clear
Clear
Temp: -11°C
Humidity: 85%
Wind Speed: NNW 7 MPH
Barometer: 1021 mb
Dewpoint: -13°C
Heat Index: -11°C
Wind Chill: -17°C
Civil Twilight: 7:11 AM MST Moon Phase:
Waxing Gibbous Moon
Sunrise: 7:48 AM MST
Sunset: 5:54 PM MST
Civil Twilight: 6:31 PM MST
Forecast for Slave Lake, AB:
(Forecast based on TAF for )
0500 PM MST WED FEB 21 2018
  
AFTERNOON EVENING
Fair Fair
ZoneCast:
Dated: 0500 PM MST WED FEB 21 2018
Afternoon...Becoming fair with winds from the westnorthwest at 9 mph.

Evening...Fair with winds from the westnorthwest at 9 mph.

Original Encoded TAF:
Dated: 0500 PM MST WED FEB 21 2018
2018/02/22 22:30
TAF 
      AMD CYZH 212242Z 2122/2207 VRB03KT P6SM SCT025 BKN060 
      TEMPO 2122/2202 2SM -SN BKN020 OVC050 
      BECMG 2123/2201 29008KT 
     FM220200 29012KT P6SM SCT020 OVC040 
      TEMPO 2202/2207 5SM -SN OVC020 
      RMK FCST BASED ON AUTO OBS. NXT FCST BY 220100Z